Terminal Aerodrome Forecast
Issued by NWS Denver/Boulder, CO

Home | Current Version | Previous Version | Text Only | Print | Product List | Glossary On
Versions: 1 2 3 4 5 6 7 8 9 10 11 12 13 14 15 16 17 18 19 20 21 22 23 24 25 26 27 28 29 30 31 32 33 34 35 36 37 38 39 40 41 42 43 44 45 46 47 48 49 50
000
FTUS45 KBOU 142340
TAFDEN
TAF
KDEN 142340Z 1500/1606 34012KT P6SM BKN110 BKN200
     FM150100 29010KT P6SM SCT100 BKN200
     FM150300 22009KT P6SM FEW100 SCT140 BKN200
     FM150600 01014KT P6SM FEW020 SCT090
     FM150800 03010KT 5SM BR SCT005 BKN010
      TEMPO 1510/1514 1 1/2SM -DZ BR BKN004
     FM151600 07009KT P6SM SCT012 BKN025
     FM151900 16011KT P6SM FEW040 SCT110=

USA.gov is the U.S. government's official web portal to all federal, state and local government web resources and services.